createdAt,value
2023-03-17T00:00:01.395Z,10.10
2023-03-17T00:01:01.337Z,10.06
2023-03-17T00:02:01.294Z,10.04
2023-03-17T00:03:01.213Z,10.06
2023-03-17T00:04:01.244Z,10.09
2023-03-17T00:05:01.097Z,10.09
2023-03-17T00:06:01.034Z,10.03
2023-03-17T00:07:01.012Z,10.07
2023-03-17T00:08:00.927Z,10.03
2023-03-17T00:09:00.858Z,10.03
2023-03-17T00:10:00.799Z,10.06
2023-03-17T00:11:00.756Z,10.01
2023-03-17T00:12:00.686Z,10.09
2023-03-17T00:13:00.635Z,10.01
2023-03-17T00:14:00.566Z,10.03
2023-03-17T00:15:00.504Z,10.10
2023-03-17T00:16:00.536Z,10.03
2023-03-17T00:17:00.394Z,10.09
2023-03-17T00:18:00.330Z,10.09
2023-03-17T00:19:00.277Z,10.09
2023-03-17T00:20:00.219Z,10.07
2023-03-17T00:21:00.153Z,10.03
2023-03-17T00:22:00.200Z,10.06
2023-03-17T00:23:00.052Z,10.03
2023-03-17T00:23:59.971Z,9.97
2023-03-17T00:24:59.916Z,10.01
2023-03-17T00:25:59.857Z,10.07
2023-03-17T00:26:59.797Z,10.09
2023-03-17T00:27:59.738Z,10.04
2023-03-17T00:28:59.680Z,10.07
2023-03-17T00:29:59.625Z,10.04
2023-03-17T00:30:59.613Z,10.07
2023-03-17T00:31:59.504Z,10.06
2023-03-17T00:32:59.462Z,10.03
2023-03-17T00:33:59.388Z,10.04
2023-03-17T00:34:59.328Z,10.10
2023-03-17T00:35:59.299Z,10.10
2023-03-17T00:36:59.211Z,10.09
2023-03-17T00:37:59.149Z,10.12
2023-03-17T00:38:59.112Z,10.06
2023-03-17T00:39:59.037Z,10.03
2023-03-17T00:40:58.973Z,10.04
2023-03-17T00:41:58.910Z,10.00
2023-03-17T00:42:58.856Z,10.04
2023-03-17T00:43:58.798Z,10.04
2023-03-17T00:44:58.740Z,10.07
2023-03-17T00:45:58.674Z,10.03
2023-03-17T00:46:58.670Z,10.01
2023-03-17T00:47:58.558Z,10.03
2023-03-17T00:48:58.500Z,10.04
2023-03-17T00:49:58.435Z,9.97
2023-03-17T00:50:59.085Z,10.01
2023-03-17T00:51:59.098Z,10.15
2023-03-17T00:52:58.270Z,10.07
2023-03-17T00:53:58.203Z,10.01
2023-03-17T00:54:58.155Z,10.04
2023-03-17T00:55:58.084Z,9.99
2023-03-17T00:56:58.033Z,10.04
2023-03-17T00:57:57.985Z,10.10
2023-03-17T00:58:57.914Z,10.07
2023-03-17T00:59:57.848Z,10.03
2023-03-17T01:00:57.844Z,10.04
2023-03-17T01:01:57.892Z,10.14
2023-03-17T01:02:57.673Z,10.06
2023-03-17T01:03:57.614Z,10.09
2023-03-17T01:05:05.816Z,9.99
2023-03-17T01:05:57.498Z,10.07
2023-03-17T01:06:57.440Z,10.09
2023-03-17T01:07:57.376Z,10.04
2023-03-17T01:08:57.325Z,10.04
2023-03-17T01:09:57.262Z,10.03
2023-03-17T01:10:57.214Z,9.99
2023-03-17T01:11:57.140Z,10.00
2023-03-17T01:12:57.084Z,10.07
2023-03-17T01:13:57.023Z,10.10
2023-03-17T01:14:56.964Z,10.04
2023-03-17T01:15:56.943Z,10.00
2023-03-17T01:16:56.842Z,10.03
2023-03-17T01:17:56.791Z,10.06
2023-03-17T01:18:56.796Z,10.03
2023-03-17T01:19:56.732Z,10.09
2023-03-17T01:20:56.617Z,10.01
2023-03-17T01:21:56.551Z,10.03
2023-03-17T01:22:56.494Z,10.01
2023-03-17T01:23:56.436Z,10.04
2023-03-17T01:24:56.378Z,10.07
2023-03-17T01:25:56.319Z,10.04
2023-03-17T01:26:56.273Z,10.01
2023-03-17T01:27:56.201Z,10.03
2023-03-17T01:28:56.136Z,10.01
2023-03-17T01:29:56.080Z,10.03
2023-03-17T01:30:56.025Z,10.09
2023-03-17T01:31:56.009Z,10.10
2023-03-17T01:32:55.910Z,10.04
2023-03-17T01:33:55.850Z,10.07
2023-03-17T01:34:55.787Z,10.01
2023-03-17T01:35:55.768Z,10.04
2023-03-17T01:36:55.672Z,10.04
2023-03-17T01:37:55.615Z,10.04
2023-03-17T01:38:55.554Z,10.07
2023-03-17T01:39:55.498Z,10.07
2023-03-17T01:40:55.557Z,10.07
2023-03-17T01:41:55.379Z,10.01
2023-03-17T01:42:55.335Z,10.09
2023-03-17T01:43:55.272Z,10.03
2023-03-17T01:44:55.196Z,10.01
2023-03-17T01:45:55.184Z,10.03
2023-03-17T01:46:55.079Z,10.04
2023-03-17T01:47:55.025Z,10.07
2023-03-17T01:48:54.965Z,10.14
2023-03-17T01:49:54.904Z,10.10
2023-03-17T01:50:54.840Z,10.07
2023-03-17T01:51:54.790Z,10.04
2023-03-17T01:52:54.729Z,10.09
2023-03-17T01:53:54.668Z,10.04
2023-03-17T01:54:54.609Z,10.00
2023-03-17T01:55:54.553Z,10.03
2023-03-17T01:56:54.493Z,10.06
2023-03-17T01:57:54.446Z,10.04
2023-03-17T01:58:54.469Z,10.04
2023-03-17T01:59:54.322Z,10.09
2023-03-17T02:00:54.350Z,10.15
2023-03-17T02:01:54.264Z,10.04
2023-03-17T02:02:54.138Z,10.10
2023-03-17T02:03:54.113Z,10.04
2023-03-17T02:04:54.025Z,10.07
2023-03-17T02:05:53.959Z,10.10
2023-03-17T02:07:00.967Z,10.09
2023-03-17T02:07:53.851Z,10.03
2023-03-17T02:08:53.795Z,10.04
2023-03-17T02:09:53.738Z,10.10
2023-03-17T02:10:53.664Z,10.12
2023-03-17T02:11:53.606Z,10.14
2023-03-17T02:12:53.545Z,10.06
2023-03-17T02:13:53.487Z,10.09
2023-03-17T02:14:53.444Z,10.03
2023-03-17T02:15:53.374Z,10.12
2023-03-17T02:16:53.365Z,10.06
2023-03-17T02:17:53.254Z,10.06
2023-03-17T02:18:53.190Z,10.06
2023-03-17T02:19:53.140Z,10.09
2023-03-17T02:20:53.078Z,10.00
2023-03-17T02:21:53.035Z,10.04
2023-03-17T02:22:52.960Z,10.03
2023-03-17T02:23:52.905Z,10.07
2023-03-17T02:24:52.840Z,10.07
2023-03-17T02:25:52.808Z,10.06
2023-03-17T02:26:52.723Z,10.06
2023-03-17T02:27:52.671Z,10.01
2023-03-17T02:28:52.604Z,10.07
2023-03-17T02:29:52.548Z,10.09
2023-03-17T02:30:52.620Z,10.10
2023-03-17T02:31:52.428Z,10.06
2023-03-17T02:32:52.448Z,10.01
2023-03-17T02:33:52.322Z,10.14
2023-03-17T02:34:52.260Z,10.04
2023-03-17T02:35:52.215Z,10.04
2023-03-17T02:36:52.186Z,9.94
2023-03-17T02:37:52.076Z,10.06
2023-03-17T02:38:52.019Z,10.03
2023-03-17T02:39:51.966Z,10.06
2023-03-17T02:40:51.905Z,10.09
2023-03-17T02:41:51.846Z,10.06
2023-03-17T02:42:51.785Z,10.01
2023-03-17T02:43:51.729Z,10.09
2023-03-17T02:44:51.664Z,10.06
2023-03-17T02:45:51.631Z,10.03
2023-03-17T02:46:51.560Z,10.07
2023-03-17T02:47:51.492Z,10.07
2023-03-17T02:48:51.527Z,10.07
2023-03-17T02:49:51.369Z,10.04
2023-03-17T02:50:51.315Z,10.10
2023-03-17T02:51:51.265Z,10.10
2023-03-17T02:52:51.208Z,10.07
2023-03-17T02:53:51.139Z,9.97
2023-03-17T02:54:51.076Z,10.07
2023-03-17T02:55:51.017Z,10.01
2023-03-17T02:56:50.962Z,9.96
2023-03-17T02:57:50.907Z,10.06
2023-03-17T02:58:50.841Z,10.00
2023-03-17T02:59:50.787Z,10.07
2023-03-17T03:00:50.728Z,10.07
2023-03-17T03:01:50.794Z,10.07
2023-03-17T03:02:50.643Z,10.04
2023-03-17T03:03:50.560Z,9.91
2023-03-17T03:04:50.491Z,10.01
2023-03-17T03:05:50.432Z,10.01
2023-03-17T03:06:50.375Z,10.07
2023-03-17T03:07:50.313Z,10.12
2023-03-17T03:08:50.260Z,10.06
2023-03-17T03:09:50.210Z,10.04
2023-03-17T03:10:50.134Z,10.01
2023-03-17T03:11:50.083Z,10.03
2023-03-17T03:12:50.012Z,10.00
2023-03-17T03:13:49.956Z,10.01
2023-03-17T03:14:49.899Z,10.06
2023-03-17T03:15:49.864Z,9.96
2023-03-17T03:16:49.778Z,9.97
2023-03-17T03:17:49.723Z,9.94
2023-03-17T03:18:49.680Z,10.00
2023-03-17T03:19:49.611Z,9.93
2023-03-17T03:20:49.547Z,9.97
2023-03-17T03:21:49.486Z,9.91
2023-03-17T03:22:49.438Z,10.03
2023-03-17T03:23:49.373Z,9.99
2023-03-17T03:24:49.313Z,9.97
2023-03-17T03:25:49.251Z,10.07
2023-03-17T03:26:49.193Z,9.89
2023-03-17T03:27:49.135Z,9.99
2023-03-17T03:28:49.071Z,9.94
2023-03-17T03:29:49.027Z,9.97
2023-03-17T03:30:48.984Z,9.91
2023-03-17T03:31:48.897Z,10.00
2023-03-17T03:32:48.864Z,10.03
2023-03-17T03:33:48.799Z,9.97
2023-03-17T03:34:48.785Z,9.96
2023-03-17T03:35:48.704Z,10.01
2023-03-17T03:36:48.606Z,9.94
2023-03-17T03:37:48.542Z,9.96
2023-03-17T03:38:48.484Z,10.04
2023-03-17T03:39:48.436Z,10.00
2023-03-17T03:40:48.365Z,10.00
2023-03-17T03:41:48.316Z,9.94
2023-03-17T03:42:48.251Z,9.94
2023-03-17T03:43:48.199Z,9.91
2023-03-17T03:44:48.128Z,9.94
2023-03-17T03:45:48.070Z,9.94
2023-03-17T03:46:48.083Z,10.00
2023-03-17T03:47:47.951Z,9.97
2023-03-17T03:48:47.906Z,9.93
2023-03-17T03:49:47.834Z,9.89
2023-03-17T03:50:47.782Z,9.94
2023-03-17T03:51:47.713Z,9.89
2023-03-17T03:52:47.663Z,9.99
2023-03-17T03:53:47.597Z,9.99
2023-03-17T03:54:47.551Z,9.99
2023-03-17T03:55:47.485Z,9.93
2023-03-17T03:56:47.418Z,9.94
2023-03-17T03:57:47.363Z,9.97
2023-03-17T03:58:47.305Z,9.97
2023-03-17T03:59:47.245Z,9.94
2023-03-17T04:00:47.183Z,9.96
2023-03-17T04:01:47.124Z,9.99
2023-03-17T04:02:47.117Z,9.89
2023-03-17T04:03:47.011Z,9.93
2023-03-17T04:04:47.064Z,9.93
2023-03-17T04:05:46.885Z,9.89
2023-03-17T04:06:46.907Z,9.94
2023-03-17T04:07:46.772Z,9.94
2023-03-17T04:08:46.711Z,9.97
2023-03-17T04:09:46.658Z,9.91
2023-03-17T04:10:46.589Z,9.91
2023-03-17T04:11:46.533Z,9.96
2023-03-17T04:12:46.482Z,9.89
2023-03-17T04:13:46.415Z,9.96
2023-03-17T04:14:46.362Z,9.91
2023-03-17T04:15:46.340Z,9.89
2023-03-17T04:16:46.234Z,9.94
2023-03-17T04:17:46.180Z,9.94
2023-03-17T04:18:46.193Z,9.93
2023-03-17T04:19:46.065Z,9.97
2023-03-17T04:20:46.004Z,9.93
2023-03-17T04:21:45.942Z,9.91
2023-03-17T04:22:45.901Z,9.97
2023-03-17T04:23:45.830Z,9.94
2023-03-17T04:24:45.787Z,9.89
2023-03-17T04:25:45.709Z,9.86
2023-03-17T04:26:45.652Z,9.96
2023-03-17T04:27:45.597Z,10.00
2023-03-17T04:28:45.531Z,9.93
2023-03-17T04:29:45.488Z,9.94
2023-03-17T04:30:45.410Z,9.96
2023-03-17T04:31:45.379Z,9.93
2023-03-17T04:32:45.328Z,9.94
2023-03-17T04:33:45.237Z,9.93
2023-03-17T04:34:45.179Z,9.89
2023-03-17T04:35:47.673Z,9.96
2023-03-17T04:36:45.071Z,9.97
2023-03-17T04:37:44.998Z,9.93
2023-03-17T04:38:44.946Z,9.93
2023-03-17T04:39:44.879Z,10.01
2023-03-17T04:40:44.829Z,9.91
2023-03-17T04:41:44.764Z,9.96
2023-03-17T04:42:44.702Z,9.99
2023-03-17T04:43:44.646Z,10.01
2023-03-17T04:44:44.586Z,9.96
2023-03-17T04:45:44.575Z,9.91
2023-03-17T04:46:44.466Z,9.94
2023-03-17T04:47:44.413Z,9.97
2023-03-17T04:48:44.353Z,10.00
2023-03-17T04:49:44.288Z,9.91
2023-03-17T04:50:44.231Z,9.93
2023-03-17T04:51:44.173Z,9.89
2023-03-17T04:52:44.110Z,9.94
2023-03-17T04:53:44.054Z,9.97
2023-03-17T04:54:44.027Z,9.86
2023-03-17T04:55:43.938Z,9.91
2023-03-17T04:56:43.876Z,9.97
2023-03-17T04:57:43.819Z,9.91
2023-03-17T04:58:43.761Z,9.94
2023-03-17T04:59:43.706Z,9.88
2023-03-17T05:00:43.660Z,9.91
2023-03-17T05:01:43.588Z,9.89
2023-03-17T05:02:43.526Z,9.86
2023-03-17T05:03:43.463Z,9.86
2023-03-17T05:04:43.423Z,9.86
2023-03-17T05:05:43.382Z,9.86
2023-03-17T05:06:43.288Z,9.88
2023-03-17T05:07:43.231Z,9.86
2023-03-17T05:08:43.171Z,9.88
2023-03-17T05:09:43.109Z,9.88
2023-03-17T05:10:43.054Z,9.86
2023-03-17T05:11:43.008Z,9.91
2023-03-17T05:12:42.937Z,9.82
2023-03-17T05:13:42.874Z,9.89
2023-03-17T05:14:42.820Z,9.83
2023-03-17T05:15:42.754Z,9.89
2023-03-17T05:16:42.732Z,9.82
2023-03-17T05:17:42.641Z,9.91
2023-03-17T05:18:42.586Z,9.86
2023-03-17T05:19:42.519Z,9.82
2023-03-17T05:20:42.464Z,9.82
2023-03-17T05:21:42.404Z,9.81
2023-03-17T05:22:42.344Z,9.86
2023-03-17T05:23:42.286Z,9.86
2023-03-17T05:24:42.231Z,9.79
2023-03-17T05:25:42.165Z,9.78
2023-03-17T05:26:42.208Z,9.86
2023-03-17T05:27:42.048Z,9.83
2023-03-17T05:28:41.993Z,9.85
2023-03-17T05:29:41.929Z,9.79
2023-03-17T05:30:41.883Z,9.79
2023-03-17T05:31:41.811Z,9.85
2023-03-17T05:32:41.774Z,9.81
2023-03-17T05:33:41.689Z,9.81
2023-03-17T05:34:41.632Z,9.83
2023-03-17T05:35:41.651Z,9.82
2023-03-17T05:36:41.520Z,9.85
2023-03-17T05:37:41.455Z,9.82
2023-03-17T05:38:41.443Z,9.79
2023-03-17T05:39:41.345Z,9.85
2023-03-17T05:40:41.280Z,9.81
2023-03-17T05:41:41.224Z,9.83
2023-03-17T05:42:41.168Z,9.79
2023-03-17T05:43:41.103Z,9.76
2023-03-17T05:44:41.053Z,9.75
2023-03-17T05:45:41.025Z,9.83
2023-03-17T05:46:40.919Z,9.83
2023-03-17T05:47:40.867Z,9.82
2023-03-17T05:48:40.841Z,9.76
2023-03-17T05:49:40.763Z,9.82
2023-03-17T05:50:40.683Z,9.75
2023-03-17T05:51:40.628Z,9.79
2023-03-17T05:52:40.571Z,9.78
2023-03-17T05:53:40.506Z,9.76
2023-03-17T05:54:40.456Z,9.78
2023-03-17T05:55:40.391Z,9.79
2023-03-17T05:56:40.334Z,9.76
2023-03-17T05:57:40.278Z,9.78
2023-03-17T05:58:40.230Z,9.78
2023-03-17T05:59:40.161Z,9.76
2023-03-17T06:00:54.667Z,9.75
2023-03-17T06:01:40.037Z,9.82
2023-03-17T06:02:40.063Z,9.81
2023-03-17T06:03:39.976Z,9.82
2023-03-17T06:04:39.862Z,9.76
2023-03-17T06:05:39.805Z,9.75
2023-03-17T06:06:39.741Z,9.75
2023-03-17T06:07:51.734Z,9.75
2023-03-17T06:08:39.631Z,9.67
2023-03-17T06:09:39.571Z,9.71
2023-03-17T06:10:39.514Z,9.73
2023-03-17T06:11:39.448Z,9.71
2023-03-17T06:12:39.387Z,9.70
2023-03-17T06:13:39.337Z,9.73
2023-03-17T06:14:39.286Z,9.66
2023-03-17T06:15:39.236Z,9.70
2023-03-17T06:16:39.157Z,9.75
2023-03-17T06:17:39.253Z,9.76
2023-03-17T06:18:39.036Z,9.68
2023-03-17T06:19:38.979Z,9.68
2023-03-17T06:20:38.921Z,9.70
2023-03-17T06:21:38.857Z,9.67
2023-03-17T06:22:44.058Z,9.68
2023-03-17T06:23:38.750Z,9.76
2023-03-17T06:24:38.682Z,9.68
2023-03-17T06:25:38.626Z,9.67
2023-03-17T06:26:38.565Z,9.67
2023-03-17T06:27:38.506Z,9.76
2023-03-17T06:28:38.443Z,9.76
2023-03-17T06:29:38.383Z,9.73
2023-03-17T06:30:40.639Z,9.68
2023-03-17T06:31:38.368Z,9.71
2023-03-17T06:32:38.256Z,9.70
2023-03-17T06:33:38.154Z,9.73
2023-03-17T06:34:38.097Z,9.68
2023-03-17T06:35:38.077Z,9.67
2023-03-17T06:36:38.659Z,9.67
2023-03-17T06:37:37.908Z,9.68
2023-03-17T06:38:37.852Z,9.71
2023-03-17T06:39:37.796Z,9.68
2023-03-17T06:40:37.733Z,9.71
2023-03-17T06:41:37.673Z,9.71
2023-03-17T06:42:37.614Z,9.71
2023-03-17T06:43:37.569Z,9.71
2023-03-17T06:44:37.509Z,9.71
2023-03-17T06:45:37.507Z,9.75
2023-03-17T06:46:37.418Z,9.66
2023-03-17T06:47:37.328Z,9.73
2023-03-17T06:48:37.255Z,9.58
2023-03-17T06:49:37.204Z,9.68
2023-03-17T06:50:37.145Z,9.67
2023-03-17T06:51:37.094Z,9.70
2023-03-17T06:52:37.027Z,9.73
2023-03-17T06:53:36.963Z,9.68
2023-03-17T06:54:36.900Z,9.66
2023-03-17T06:55:36.841Z,9.70
2023-03-17T06:56:36.787Z,9.64
2023-03-17T06:57:36.730Z,9.67
2023-03-17T06:58:36.667Z,9.73
2023-03-17T06:59:36.607Z,9.67
2023-03-17T07:00:36.548Z,9.64
2023-03-17T07:01:36.525Z,9.70
2023-03-17T07:02:36.438Z,9.68
2023-03-17T07:03:38.192Z,9.75
2023-03-17T07:04:36.346Z,9.71
2023-03-17T07:05:36.250Z,9.67
2023-03-17T07:06:36.194Z,9.68
2023-03-17T07:07:36.154Z,9.67
2023-03-17T07:08:36.075Z,9.71
2023-03-17T07:09:36.020Z,9.75
2023-03-17T07:10:35.956Z,9.70
2023-03-17T07:11:35.899Z,9.70
2023-03-17T07:12:35.840Z,9.75
2023-03-17T07:13:35.785Z,9.66
2023-03-17T07:14:35.740Z,9.75
2023-03-17T07:15:35.680Z,9.70
2023-03-17T07:16:35.630Z,9.68
2023-03-17T07:17:35.561Z,9.70
2023-03-17T07:18:35.487Z,9.70
2023-03-17T07:19:35.425Z,9.78
2023-03-17T07:20:35.364Z,9.66
2023-03-17T07:21:35.307Z,9.70
2023-03-17T07:22:35.241Z,9.66
2023-03-17T07:23:35.189Z,9.68
2023-03-17T07:24:35.131Z,9.71
2023-03-17T07:25:35.073Z,9.71
2023-03-17T07:26:35.010Z,9.70
2023-03-17T07:27:34.953Z,9.73
2023-03-17T07:28:34.900Z,9.70
2023-03-17T07:29:34.833Z,9.73
2023-03-17T07:30:34.770Z,9.68
2023-03-17T07:31:34.744Z,9.70
2023-03-17T07:32:34.683Z,9.73
2023-03-17T07:33:34.596Z,9.73
2023-03-17T07:34:34.551Z,9.67
2023-03-17T07:35:35.010Z,9.75
2023-03-17T07:36:34.421Z,9.76
2023-03-17T07:37:34.366Z,9.68
2023-03-17T07:38:34.301Z,9.76
2023-03-17T07:39:34.252Z,9.68
2023-03-17T07:40:35.421Z,9.71
2023-03-17T07:41:34.121Z,9.68
2023-03-17T07:42:34.065Z,9.68
2023-03-17T07:43:33.999Z,9.71
2023-03-17T07:44:33.943Z,9.71
2023-03-17T07:45:34.285Z,9.78
2023-03-17T07:46:33.822Z,9.71
2023-03-17T07:47:33.762Z,9.73
2023-03-17T07:48:33.752Z,9.75
2023-03-17T07:49:41.123Z,9.71
2023-03-17T07:50:33.594Z,9.75
2023-03-17T07:51:33.545Z,9.81
2023-03-17T07:52:33.480Z,9.68
2023-03-17T07:53:33.446Z,9.75
2023-03-17T07:54:33.348Z,9.68
2023-03-17T07:55:33.471Z,9.68
2023-03-17T07:56:33.251Z,9.68
2023-03-17T07:57:33.210Z,9.76
2023-03-17T07:58:33.118Z,9.78
2023-03-17T07:59:33.059Z,9.76
2023-03-17T08:00:33.288Z,9.73
2023-03-17T08:01:32.941Z,9.75
2023-03-17T08:02:32.910Z,9.78
2023-03-17T08:03:32.862Z,9.75
2023-03-17T08:04:32.788Z,9.75
2023-03-17T08:05:32.729Z,9.79
2023-03-17T08:06:32.643Z,9.78
2023-03-17T08:07:32.582Z,9.83
2023-03-17T08:08:32.521Z,9.68
2023-03-17T08:09:32.465Z,9.79
2023-03-17T08:10:32.825Z,9.78
2023-03-17T08:11:32.345Z,9.76
2023-03-17T08:12:32.300Z,9.70
2023-03-17T08:13:32.237Z,9.82
2023-03-17T08:14:32.165Z,9.78
2023-03-17T08:15:32.126Z,9.75
2023-03-17T08:16:32.091Z,9.79
2023-03-17T08:17:32.020Z,9.79
2023-03-17T08:18:31.978Z,9.76
2023-03-17T08:19:31.908Z,9.83
2023-03-17T08:20:32.091Z,9.79
2023-03-17T08:21:31.755Z,9.83
2023-03-17T08:22:31.716Z,9.71
2023-03-17T08:23:31.643Z,9.76
2023-03-17T08:24:31.607Z,9.79
2023-03-17T08:25:31.531Z,9.79
2023-03-17T08:26:31.466Z,9.82
2023-03-17T08:27:33.662Z,9.83
2023-03-17T08:28:31.453Z,9.82
2023-03-17T08:29:31.297Z,9.83
2023-03-17T08:30:33.585Z,9.86
2023-03-17T08:31:31.227Z,9.86
2023-03-17T08:32:31.187Z,9.85
2023-03-17T08:33:31.077Z,9.82
2023-03-17T08:34:30.988Z,9.76
2023-03-17T08:35:31.290Z,9.85
2023-03-17T08:36:30.871Z,9.83
2023-03-17T08:37:30.807Z,9.85
2023-03-17T08:38:30.819Z,9.83
2023-03-17T08:39:30.727Z,9.83
2023-03-17T08:40:31.221Z,9.86
2023-03-17T08:41:30.640Z,9.79
2023-03-17T08:42:30.525Z,9.86
2023-03-17T08:43:30.452Z,9.83
2023-03-17T08:44:30.395Z,9.85
2023-03-17T08:45:30.618Z,9.88
2023-03-17T08:46:30.388Z,9.85
2023-03-17T08:47:30.229Z,9.89
2023-03-17T08:48:30.158Z,9.91
2023-03-17T08:49:30.105Z,9.91
2023-03-17T08:50:30.421Z,9.86
2023-03-17T08:51:29.990Z,9.89
2023-03-17T08:52:29.918Z,9.96
2023-03-17T08:53:29.884Z,9.86
2023-03-17T08:54:29.813Z,9.93
2023-03-17T08:55:29.751Z,9.99
2023-03-17T08:56:29.688Z,9.86
2023-03-17T08:57:29.629Z,9.97
2023-03-17T08:58:29.569Z,9.89
2023-03-17T08:59:29.525Z,9.94
2023-03-17T09:00:29.805Z,9.91
2023-03-17T09:01:29.401Z,9.97
2023-03-17T09:02:29.362Z,9.96
2023-03-17T09:03:29.280Z,9.89
2023-03-17T09:04:29.213Z,9.99
2023-03-17T09:05:29.536Z,9.93
2023-03-17T09:06:29.097Z,9.89
2023-03-17T09:07:29.098Z,9.89
2023-03-17T09:08:28.979Z,9.94
2023-03-17T09:09:28.927Z,9.97
2023-03-17T09:10:29.260Z,9.94
2023-03-17T09:11:28.853Z,9.96
2023-03-17T09:12:28.751Z,9.93
2023-03-17T09:13:28.682Z,9.97
2023-03-17T09:14:29.563Z,9.93
2023-03-17T09:15:28.567Z,9.97
2023-03-17T09:16:28.672Z,9.97
2023-03-17T09:17:28.450Z,9.89
2023-03-17T09:18:28.386Z,9.96
2023-03-17T09:19:28.330Z,9.94
2023-03-17T09:20:28.268Z,9.91
2023-03-17T09:21:28.221Z,10.03
2023-03-17T09:22:28.149Z,10.07
2023-03-17T09:23:28.175Z,10.09
2023-03-17T09:24:28.033Z,10.03
2023-03-17T09:25:27.971Z,10.07
2023-03-17T09:26:27.927Z,10.09
2023-03-17T09:27:27.856Z,10.01
2023-03-17T09:28:27.797Z,10.14
2023-03-17T09:29:27.736Z,10.07
2023-03-17T09:30:27.685Z,10.09
2023-03-17T09:31:27.718Z,10.17
2023-03-17T09:32:27.706Z,10.12
2023-03-17T09:33:27.514Z,10.14
2023-03-17T09:34:27.448Z,10.15
2023-03-17T09:35:27.386Z,10.17
2023-03-17T09:36:27.320Z,10.12
2023-03-17T09:37:27.266Z,10.21
2023-03-17T09:38:27.216Z,10.25
2023-03-17T09:39:27.150Z,10.32
2023-03-17T09:40:28.566Z,10.30
2023-03-17T09:41:27.032Z,10.32
2023-03-17T09:42:26.973Z,10.26
2023-03-17T09:43:26.935Z,10.25
2023-03-17T09:44:26.857Z,10.25
2023-03-17T09:45:27.718Z,10.33
2023-03-17T09:46:26.797Z,10.40
2023-03-17T09:47:29.220Z,10.28
2023-03-17T09:48:26.619Z,10.39
2023-03-17T09:49:26.556Z,10.34
2023-03-17T09:50:26.500Z,10.43
2023-03-17T09:51:26.439Z,10.53
2023-03-17T09:52:26.396Z,10.46
2023-03-17T09:53:26.361Z,10.44
2023-03-17T09:54:26.263Z,10.51
2023-03-17T09:55:26.205Z,10.56
2023-03-17T09:56:26.144Z,10.52
2023-03-17T09:57:26.091Z,10.59
2023-03-17T09:58:26.041Z,10.59
2023-03-17T09:59:25.994Z,10.63
2023-03-17T10:00:25.912Z,10.56
2023-03-17T10:01:25.906Z,10.65
2023-03-17T10:02:25.798Z,10.71
2023-03-17T10:03:25.822Z,10.68
2023-03-17T10:04:25.685Z,10.68
2023-03-17T10:05:25.695Z,10.74
2023-03-17T10:06:25.560Z,10.65
2023-03-17T10:07:25.501Z,10.71
2023-03-17T10:08:30.776Z,10.76
2023-03-17T10:09:26.944Z,10.74
2023-03-17T10:10:25.321Z,10.76
2023-03-17T10:11:25.264Z,10.81
2023-03-17T10:12:25.213Z,10.74
2023-03-17T10:13:31.737Z,10.77
2023-03-17T10:14:25.087Z,10.78
2023-03-17T10:15:25.031Z,10.81
2023-03-17T10:16:25.019Z,10.91
2023-03-17T10:17:24.912Z,10.89
2023-03-17T10:18:24.852Z,10.89
2023-03-17T10:19:24.808Z,10.91
2023-03-17T10:20:24.738Z,10.94
2023-03-17T10:21:24.681Z,10.99
2023-03-17T10:22:24.624Z,10.91
2023-03-17T10:23:24.641Z,11.02
2023-03-17T10:24:24.514Z,11.10
2023-03-17T10:25:24.445Z,11.03
2023-03-17T10:26:24.391Z,11.09
2023-03-17T10:27:24.330Z,11.06
2023-03-17T10:28:24.271Z,11.07
2023-03-17T10:29:24.269Z,11.14
2023-03-17T10:30:24.170Z,11.13
2023-03-17T10:31:24.126Z,11.25
2023-03-17T10:32:24.040Z,11.19
2023-03-17T10:33:24.063Z,11.19
2023-03-17T10:34:23.925Z,11.28
2023-03-17T10:35:23.869Z,11.29
2023-03-17T10:36:23.801Z,11.36
2023-03-17T10:37:23.767Z,11.38
2023-03-17T10:38:23.693Z,11.44
2023-03-17T10:39:23.626Z,11.38
2023-03-17T10:40:23.569Z,11.50
2023-03-17T10:41:23.511Z,11.46
2023-03-17T10:42:23.460Z,11.50
2023-03-17T10:43:23.438Z,11.54
2023-03-17T10:44:23.340Z,11.52
2023-03-17T10:45:23.280Z,11.56
2023-03-17T10:46:23.341Z,11.57
2023-03-17T10:47:23.160Z,11.56
2023-03-17T10:48:23.101Z,11.67
2023-03-17T10:49:23.041Z,11.65
2023-03-17T10:50:23.059Z,11.72
2023-03-17T10:51:22.927Z,11.74
2023-03-17T10:52:22.876Z,11.72
2023-03-17T10:53:22.915Z,11.71
2023-03-17T10:54:22.768Z,11.77
2023-03-17T10:55:22.695Z,11.77
2023-03-17T10:56:22.637Z,11.80
2023-03-17T10:57:22.602Z,11.82
2023-03-17T10:58:22.545Z,11.78
2023-03-17T10:59:22.477Z,11.78
2023-03-17T11:00:22.404Z,11.82
2023-03-17T11:01:22.411Z,11.85
2023-03-17T11:02:22.290Z,11.85
2023-03-17T11:03:22.325Z,11.86
2023-03-17T11:04:22.211Z,11.94
2023-03-17T11:05:22.119Z,11.82
2023-03-17T11:06:22.061Z,11.94
2023-03-17T11:07:22.003Z,11.89
2023-03-17T11:08:21.940Z,11.97
2023-03-17T11:09:21.885Z,11.96
2023-03-17T11:10:21.824Z,12.04
2023-03-17T11:11:22.483Z,12.01
2023-03-17T11:12:21.709Z,11.99
2023-03-17T11:13:21.653Z,11.96
2023-03-17T11:14:21.601Z,12.02
2023-03-17T11:15:21.534Z,12.05
2023-03-17T11:16:21.540Z,12.05
2023-03-17T11:17:21.425Z,12.19
2023-03-17T11:18:21.372Z,12.16
2023-03-17T11:19:21.300Z,12.16
2023-03-17T11:20:21.291Z,12.16
2023-03-17T11:21:21.207Z,12.16
2023-03-17T11:22:21.141Z,12.27
2023-03-17T11:23:21.085Z,12.30
2023-03-17T11:24:21.027Z,12.33
2023-03-17T11:25:20.967Z,12.34
2023-03-17T11:26:20.900Z,12.31
2023-03-17T11:27:20.843Z,12.29
2023-03-17T11:28:20.790Z,12.34
2023-03-17T11:29:20.738Z,12.33
2023-03-17T11:30:20.686Z,12.34
2023-03-17T11:31:20.635Z,12.33
2023-03-17T11:32:20.551Z,12.37
2023-03-17T11:33:20.507Z,12.30
2023-03-17T11:34:20.443Z,12.30
2023-03-17T11:35:20.383Z,12.33
2023-03-17T11:36:20.329Z,12.29
2023-03-17T11:37:20.266Z,12.34
2023-03-17T11:38:20.223Z,12.46
2023-03-17T11:39:20.150Z,12.46
2023-03-17T11:40:20.095Z,12.46
2023-03-17T11:41:20.031Z,12.56
2023-03-17T11:42:19.978Z,12.48
2023-03-17T11:43:19.917Z,12.45
2023-03-17T11:44:19.878Z,12.42
2023-03-17T11:45:19.811Z,12.44
2023-03-17T11:46:19.788Z,12.46
2023-03-17T11:47:19.691Z,12.49
2023-03-17T11:48:19.640Z,12.60
2023-03-17T11:49:19.582Z,12.54
2023-03-17T11:50:19.519Z,12.57
2023-03-17T11:51:19.460Z,12.62
2023-03-17T11:52:19.405Z,12.54
2023-03-17T11:53:19.344Z,12.57
2023-03-17T11:54:19.290Z,12.59
2023-03-17T11:55:19.234Z,12.59
2023-03-17T11:56:19.171Z,12.70
2023-03-17T11:57:19.704Z,12.75
2023-03-17T11:58:19.051Z,12.71
2023-03-17T11:59:19.009Z,12.70
2023-03-17T12:00:18.937Z,12.81
2023-03-17T12:01:18.882Z,12.67
2023-03-17T12:02:18.852Z,12.74
2023-03-17T12:03:18.821Z,12.75
2023-03-17T12:04:18.782Z,12.81
2023-03-17T12:05:18.658Z,12.75
2023-03-17T12:06:18.599Z,12.79
2023-03-17T12:07:18.534Z,12.82
2023-03-17T12:08:18.476Z,12.84
2023-03-17T12:09:18.422Z,12.87
2023-03-17T12:10:18.362Z,12.85
2023-03-17T12:11:18.304Z,12.89
2023-03-17T12:12:18.259Z,12.85
2023-03-17T12:13:18.203Z,12.87
2023-03-17T12:14:18.132Z,12.95
2023-03-17T12:15:18.087Z,13.02
2023-03-17T12:16:18.090Z,12.96
2023-03-17T12:17:17.960Z,12.96
2023-03-17T12:18:17.901Z,12.92
2023-03-17T12:19:17.844Z,12.99
2023-03-17T12:20:17.791Z,13.09
2023-03-17T12:21:17.749Z,13.02
2023-03-17T12:22:17.676Z,13.02
2023-03-17T12:23:17.617Z,13.17
2023-03-17T12:24:17.572Z,13.14
2023-03-17T12:25:17.500Z,13.09
2023-03-17T12:26:17.458Z,13.11
2023-03-17T12:27:17.390Z,13.15
2023-03-17T12:28:17.330Z,13.17
2023-03-17T12:29:17.272Z,13.17
2023-03-17T12:30:17.227Z,13.22
2023-03-17T12:31:17.209Z,13.27
2023-03-17T12:32:17.099Z,13.24
2023-03-17T12:33:17.047Z,13.18
2023-03-17T12:34:17.019Z,13.24
2023-03-17T12:35:16.944Z,13.27
2023-03-17T12:36:16.913Z,13.27
2023-03-17T12:37:16.830Z,13.36
2023-03-17T12:38:16.764Z,13.33
2023-03-17T12:39:16.701Z,13.32
2023-03-17T12:40:16.647Z,13.32
2023-03-17T12:41:16.587Z,13.38
2023-03-17T12:42:16.529Z,13.37
2023-03-17T12:43:16.522Z,13.36
2023-03-17T12:44:16.419Z,13.40
2023-03-17T12:45:16.379Z,13.40
2023-03-17T12:46:16.331Z,13.32
2023-03-17T12:47:16.245Z,13.46
2023-03-17T12:48:16.215Z,13.44
2023-03-17T12:49:16.135Z,13.49
2023-03-17T12:50:16.081Z,13.46
2023-03-17T12:51:16.028Z,13.43
2023-03-17T12:52:15.969Z,13.46
2023-03-17T12:53:15.921Z,13.51
2023-03-17T12:54:15.849Z,13.51
2023-03-17T12:55:15.797Z,13.47
2023-03-17T12:56:15.737Z,13.46
2023-03-17T12:57:15.674Z,13.56
2023-03-17T12:58:15.627Z,13.61
2023-03-17T12:59:15.564Z,13.58
2023-03-17T13:00:15.514Z,13.59
2023-03-17T13:01:15.460Z,13.59
2023-03-17T13:02:15.396Z,13.55
2023-03-17T13:03:15.360Z,13.63